createdAt,value
2018-03-22T00:01:11.363Z,16.43
2018-03-22T00:03:38.957Z,15.20
2018-03-22T00:06:06.607Z,17.37
2018-03-22T00:08:34.257Z,15.20
2018-03-22T00:11:01.876Z,14.53
2018-03-22T00:13:29.467Z,15.20
2018-03-22T00:15:57.111Z,12.83
2018-03-22T00:18:24.694Z,13.27
2018-03-22T00:20:52.370Z,13.83
2018-03-22T00:23:20.215Z,13.23
2018-03-22T00:25:47.788Z,11.40
2018-03-22T00:28:15.430Z,12.30
2018-03-22T00:30:43.068Z,12.03
2018-03-22T00:33:10.711Z,11.33
2018-03-22T00:35:38.483Z,11.43
2018-03-22T00:38:06.280Z,10.77
2018-03-22T00:40:33.852Z,10.53
2018-03-22T00:43:01.426Z,10.83
2018-03-22T00:45:29.069Z,8.90
2018-03-22T00:47:56.661Z,10.30
2018-03-22T00:50:24.254Z,9.67
2018-03-22T00:52:51.891Z,10.60
2018-03-22T00:55:19.465Z,9.90
2018-03-22T00:57:47.038Z,10.87
2018-03-22T01:00:14.702Z,9.57
2018-03-22T01:02:42.279Z,9.33
2018-03-22T01:05:09.882Z,10.43
2018-03-22T01:07:37.741Z,10.93
2018-03-22T01:10:05.368Z,11.13
2018-03-22T01:12:33.007Z,11.30
2018-03-22T01:15:00.631Z,13.00
2018-03-22T01:17:28.220Z,13.07
2018-03-22T01:19:56.630Z,13.50
2018-03-22T01:22:24.242Z,11.70
2018-03-22T01:24:51.808Z,11.90
2018-03-22T01:27:19.372Z,12.70
2018-03-22T01:29:47.029Z,12.43
2018-03-22T01:32:14.634Z,13.03
2018-03-22T01:34:42.219Z,12.60
2018-03-22T01:37:09.868Z,11.80
2018-03-22T01:39:37.690Z,10.37
2018-03-22T01:42:05.335Z,11.77
2018-03-22T01:44:32.986Z,10.70
2018-03-22T01:47:00.551Z,11.23
2018-03-22T01:49:28.145Z,11.27
2018-03-22T01:51:55.757Z,11.07
2018-03-22T01:54:23.337Z,10.10
2018-03-22T01:56:51.872Z,11.17
2018-03-22T01:59:19.500Z,12.37
2018-03-22T02:01:47.092Z,11.83
2018-03-22T02:04:14.695Z,11.43
2018-03-22T02:06:42.336Z,10.10
2018-03-22T02:09:09.911Z,12.07
2018-03-22T02:11:37.469Z,11.37
2018-03-22T02:14:05.371Z,11.37
2018-03-22T02:16:32.940Z,10.93
2018-03-22T02:19:00.515Z,10.87
2018-03-22T02:21:28.165Z,11.27
2018-03-22T02:23:55.814Z,13.00
2018-03-22T02:26:23.383Z,11.47
2018-03-22T02:28:51.243Z,12.83
2018-03-22T02:31:18.881Z,14.77
2018-03-22T02:33:46.523Z,13.70
2018-03-22T02:36:14.213Z,15.93
2018-03-22T02:38:41.776Z,14.37
2018-03-22T02:41:09.553Z,13.47
2018-03-22T02:43:37.274Z,14.33
2018-03-22T02:46:04.848Z,14.23
2018-03-22T02:48:32.451Z,13.77
2018-03-22T02:51:00.400Z,13.73
2018-03-22T02:53:27.968Z,13.80
2018-03-22T02:55:55.550Z,14.80
2018-03-22T02:58:23.220Z,15.13
2018-03-22T03:00:50.795Z,15.47
2018-03-22T03:03:18.383Z,14.17
2018-03-22T03:05:46.019Z,14.30
2018-03-22T03:08:13.622Z,14.93
2018-03-22T03:10:41.269Z,14.93
2018-03-22T03:13:08.912Z,17.73
2018-03-22T03:15:36.553Z,14.90
2018-03-22T03:18:04.143Z,14.50
2018-03-22T03:20:31.786Z,15.87
2018-03-22T03:22:59.438Z,17.77
2018-03-22T03:25:27.017Z,18.17
2018-03-22T03:27:54.938Z,17.67
2018-03-22T03:30:22.558Z,16.73
2018-03-22T03:32:50.125Z,16.97
2018-03-22T03:35:17.770Z,21.23
2018-03-22T03:37:45.344Z,16.67
2018-03-22T03:40:13.024Z,16.97
2018-03-22T03:42:40.733Z,16.63
2018-03-22T03:45:08.383Z,17.13
2018-03-22T03:47:35.964Z,16.37
2018-03-22T03:50:03.664Z,14.03
2018-03-22T03:52:31.280Z,14.50
2018-03-22T03:54:58.876Z,15.13
2018-03-22T03:57:26.529Z,14.03
2018-03-22T03:59:54.142Z,15.63
2018-03-22T04:02:21.713Z,16.37
2018-03-22T04:04:49.362Z,15.23
2018-03-22T04:07:16.949Z,15.77
2018-03-22T04:09:44.536Z,14.87
2018-03-22T04:12:12.259Z,15.10
2018-03-22T04:14:39.854Z,15.80
2018-03-22T04:17:07.493Z,16.20
2018-03-22T04:19:35.114Z,15.33
2018-03-22T04:22:02.708Z,13.00
2018-03-22T04:24:30.378Z,15.27
2018-03-22T04:26:58.329Z,17.47
2018-03-22T04:29:25.920Z,14.33
2018-03-22T04:31:53.495Z,14.53
2018-03-22T04:34:21.195Z,14.50
2018-03-22T04:36:48.800Z,16.30
2018-03-22T04:39:16.438Z,15.07
2018-03-22T04:41:44.109Z,14.20
2018-03-22T04:44:11.718Z,13.03
2018-03-22T04:46:39.359Z,14.40
2018-03-22T04:49:06.998Z,14.07
2018-03-22T04:51:34.569Z,14.00
2018-03-22T04:54:02.238Z,13.13
2018-03-22T04:56:29.881Z,14.73
2018-03-22T04:58:57.474Z,16.00
2018-03-22T05:01:25.096Z,16.20
2018-03-22T05:03:52.725Z,24.73
2018-03-22T05:06:20.321Z,20.93
2018-03-22T05:08:47.907Z,25.37
2018-03-22T05:11:15.537Z,25.47
2018-03-22T05:13:43.364Z,26.20
2018-03-22T05:16:10.991Z,23.47
2018-03-22T05:18:38.858Z,25.33
2018-03-22T05:21:06.440Z,30.10
2018-03-22T05:23:34.028Z,27.93
2018-03-22T05:26:01.993Z,25.53
2018-03-22T05:28:29.586Z,23.53
2018-03-22T05:30:57.201Z,24.23
2018-03-22T05:33:24.841Z,23.53
2018-03-22T05:35:52.416Z,24.03
2018-03-22T05:38:20.001Z,24.67
2018-03-22T05:40:47.654Z,35.77
2018-03-22T05:43:15.905Z,30.50
2018-03-22T05:45:43.644Z,28.20
2018-03-22T05:48:11.313Z,30.67
2018-03-22T05:50:38.894Z,32.57
2018-03-22T05:53:06.482Z,36.03
2018-03-22T05:55:34.390Z,36.07
2018-03-22T05:58:02.134Z,36.67
2018-03-22T06:00:29.740Z,37.17
2018-03-22T06:02:58.139Z,36.33
2018-03-22T06:05:25.716Z,38.97
2018-03-22T06:07:53.291Z,48.07
2018-03-22T06:10:20.948Z,31.73
2018-03-22T06:12:48.530Z,28.27
2018-03-22T06:15:16.109Z,31.50
2018-03-22T06:17:44.094Z,27.73
2018-03-22T06:20:11.695Z,20.10
2018-03-22T06:22:39.267Z,17.07
2018-03-22T06:25:06.906Z,16.93
2018-03-22T06:27:34.508Z,17.47
2018-03-22T06:30:02.100Z,17.60
2018-03-22T06:32:29.781Z,16.43
2018-03-22T06:34:57.409Z,17.67
2018-03-22T06:37:25.061Z,15.10
2018-03-22T06:39:52.699Z,16.83
2018-03-22T06:42:20.343Z,15.43
2018-03-22T06:44:48.718Z,13.00
2018-03-22T06:47:16.541Z,14.30
2018-03-22T06:49:44.134Z,13.17
2018-03-22T06:52:11.790Z,14.60
2018-03-22T06:54:39.465Z,16.30
2018-03-22T06:57:07.040Z,16.27
2018-03-22T06:59:34.643Z,15.33
2018-03-22T07:02:02.314Z,14.57
2018-03-22T07:04:29.986Z,17.33
2018-03-22T07:06:57.602Z,14.73
2018-03-22T07:09:25.250Z,14.50
2018-03-22T07:16:03.912Z,15.30
2018-03-22T07:18:31.543Z,16.77
2018-03-22T07:20:59.188Z,16.33
2018-03-22T07:23:26.957Z,16.30
2018-03-22T07:25:54.618Z,15.27
2018-03-22T07:28:23.137Z,16.00
2018-03-22T07:30:50.773Z,16.63
2018-03-22T07:33:18.355Z,14.93
2018-03-22T07:35:45.934Z,13.47
2018-03-22T07:38:13.569Z,15.83
2018-03-22T07:40:41.162Z,16.07
2018-03-22T07:43:14.418Z,16.20
2018-03-22T07:45:42.067Z,16.77
2018-03-22T07:48:09.790Z,14.93
2018-03-22T07:50:37.474Z,15.47
2018-03-22T07:53:05.060Z,16.23
2018-03-22T07:55:32.666Z,16.37
2018-03-22T07:58:00.311Z,15.23
2018-03-22T08:00:27.970Z,15.87
2018-03-22T08:03:00.576Z,15.63
2018-03-22T08:05:28.160Z,15.50
2018-03-22T08:07:55.817Z,15.87
2018-03-22T08:10:23.527Z,16.13
2018-03-22T08:12:51.239Z,14.17
2018-03-22T08:15:18.833Z,15.17
2018-03-22T08:17:46.470Z,15.60
2018-03-22T08:20:14.107Z,17.57
2018-03-22T08:22:41.753Z,17.70
2018-03-22T08:25:09.372Z,16.80
2018-03-22T08:27:36.932Z,16.33
2018-03-22T08:30:04.552Z,19.57
2018-03-22T08:32:32.438Z,17.30
2018-03-22T08:35:00.027Z,19.03
2018-03-22T08:37:27.625Z,20.60
2018-03-22T08:39:55.526Z,19.07
2018-03-22T08:42:23.101Z,18.83
2018-03-22T08:44:50.678Z,20.40
2018-03-22T08:47:18.423Z,19.57
2018-03-22T08:49:46.240Z,21.37
2018-03-22T08:52:13.796Z,21.37
2018-03-22T08:54:41.428Z,26.30
2018-03-22T08:57:09.018Z,33.00
2018-03-22T08:59:36.672Z,18.30
2018-03-22T09:02:04.392Z,14.63
2018-03-22T09:04:31.956Z,17.50
2018-03-22T09:06:59.552Z,18.60
2018-03-22T09:09:27.388Z,21.83
2018-03-22T09:11:55.546Z,18.77
2018-03-22T09:14:23.151Z,21.30
2018-03-22T09:16:50.809Z,21.13
2018-03-22T09:19:18.475Z,22.63
2018-03-22T09:21:46.061Z,19.13
2018-03-22T09:24:14.402Z,21.30
2018-03-22T09:26:47.618Z,21.70
2018-03-22T09:29:15.305Z,19.90
2018-03-22T09:31:42.957Z,20.70
2018-03-22T09:34:10.559Z,22.57
2018-03-22T09:36:38.829Z,20.17
2018-03-22T09:39:06.435Z,19.00
2018-03-22T09:41:34.019Z,18.67
2018-03-22T09:44:01.911Z,17.63
2018-03-22T09:46:29.479Z,21.50
2018-03-22T09:48:57.094Z,17.17
2018-03-22T09:51:25.553Z,21.30
2018-03-22T09:53:53.128Z,19.17
2018-03-22T09:56:20.803Z,21.73
2018-03-22T09:58:48.403Z,21.77
2018-03-22T10:01:16.044Z,25.87
2018-03-22T10:03:43.636Z,23.13
2018-03-22T10:06:11.389Z,24.27
2018-03-22T10:08:39.019Z,28.37
2018-03-22T10:11:06.585Z,27.50
2018-03-22T10:13:34.328Z,26.37
2018-03-22T10:16:01.934Z,24.50
2018-03-22T10:18:29.590Z,24.37
2018-03-22T10:20:57.219Z,30.60
2018-03-22T10:23:24.798Z,28.37
2018-03-22T10:25:52.418Z,25.87
2018-03-22T10:28:20.115Z,27.40
2018-03-22T10:30:47.688Z,35.33
2018-03-22T10:33:15.264Z,41.20
2018-03-22T10:35:42.909Z,36.77
2018-03-22T10:38:10.523Z,30.57
2018-03-22T10:40:38.119Z,37.47
2018-03-22T10:43:05.760Z,37.67
2018-03-22T10:45:33.331Z,27.63
2018-03-22T10:48:01.647Z,38.67
2018-03-22T10:50:29.306Z,33.70
2018-03-22T10:52:57.428Z,41.17
2018-03-22T10:55:25.073Z,32.83
2018-03-22T10:57:52.701Z,38.70
2018-03-22T11:00:25.876Z,32.80
2018-03-22T11:02:57.064Z,31.60
2018-03-22T11:05:24.660Z,35.50
2018-03-22T11:07:52.310Z,28.30
2018-03-22T11:10:19.936Z,28.33
2018-03-22T11:12:47.514Z,28.50
2018-03-22T11:15:15.111Z,56.90
2018-03-22T11:17:42.743Z,39.13
2018-03-22T11:20:10.417Z,31.60
2018-03-22T11:22:38.108Z,31.17
2018-03-22T11:25:05.773Z,29.20
2018-03-22T11:27:33.400Z,46.73
2018-03-22T11:30:00.980Z,34.40
2018-03-22T11:32:28.674Z,36.17
2018-03-22T11:34:56.285Z,30.60
2018-03-22T11:37:23.852Z,36.57
2018-03-22T11:39:52.607Z,30.50
2018-03-22T11:42:20.255Z,32.43
2018-03-22T11:44:47.906Z,25.80
2018-03-22T11:47:15.557Z,28.50
2018-03-22T11:49:43.751Z,28.87
2018-03-22T11:52:11.423Z,28.00
2018-03-22T11:54:39.355Z,25.47
2018-03-22T11:57:06.933Z,24.83
2018-03-22T11:59:34.539Z,27.50
2018-03-22T12:02:02.231Z,26.00
2018-03-22T12:04:29.842Z,26.17
2018-03-22T12:06:57.434Z,27.63
2018-03-22T12:09:25.087Z,25.03
2018-03-22T12:11:52.741Z,29.70
2018-03-22T12:14:20.349Z,24.83
2018-03-22T12:16:47.996Z,26.63
2018-03-22T12:19:15.563Z,25.47
2018-03-22T12:21:43.169Z,23.60
2018-03-22T12:24:10.906Z,26.93
2018-03-22T12:26:38.551Z,33.17
2018-03-22T12:29:06.204Z,29.17
2018-03-22T12:31:34.137Z,30.70
2018-03-22T12:34:01.728Z,29.50
2018-03-22T12:36:29.300Z,28.53
2018-03-22T12:38:56.951Z,28.23
2018-03-22T12:41:24.554Z,25.87
2018-03-22T12:43:52.169Z,28.83
2018-03-22T12:46:20.179Z,28.63
2018-03-22T12:48:47.757Z,29.83
2018-03-22T12:51:15.341Z,29.10
2018-03-22T12:53:42.973Z,27.73
2018-03-22T12:56:11.086Z,28.80
2018-03-22T12:58:38.739Z,35.20
2018-03-22T13:01:07.071Z,30.23
2018-03-22T13:03:34.654Z,30.20
2018-03-22T13:06:02.433Z,29.27
2018-03-22T13:08:30.128Z,26.93
2018-03-22T13:10:57.766Z,25.07
2018-03-22T13:13:26.178Z,28.50
2018-03-22T13:15:53.839Z,25.80
2018-03-22T13:18:21.486Z,28.07
2018-03-22T13:20:49.076Z,25.77
2018-03-22T13:23:16.723Z,25.60
2018-03-22T13:25:44.323Z,24.70
2018-03-22T13:28:11.906Z,25.63
2018-03-22T13:30:39.549Z,27.50
2018-03-22T13:33:07.121Z,25.83
2018-03-22T13:35:34.700Z,31.03
2018-03-22T13:38:02.558Z,29.73
2018-03-22T13:40:30.145Z,29.33
2018-03-22T13:42:57.728Z,26.60
2018-03-22T13:45:25.345Z,26.57
2018-03-22T13:47:52.991Z,26.90
2018-03-22T13:50:20.593Z,31.60
2018-03-22T13:52:48.218Z,32.70
2018-03-22T13:55:15.799Z,32.63
2018-03-22T13:57:43.404Z,38.27
2018-03-22T14:00:11.040Z,41.30
2018-03-22T14:02:38.623Z,30.77
2018-03-22T14:05:06.216Z,32.87
2018-03-22T14:07:33.840Z,31.67
2018-03-22T14:10:01.417Z,30.17
2018-03-22T14:12:29.060Z,30.93
2018-03-22T14:14:56.708Z,32.47
2018-03-22T14:17:24.278Z,35.27
2018-03-22T14:19:51.886Z,30.90
2018-03-22T14:22:19.810Z,29.00
2018-03-22T14:24:47.487Z,31.97
2018-03-22T14:27:15.071Z,34.60
2018-03-22T14:29:42.738Z,29.63
2018-03-22T14:32:10.327Z,32.57
2018-03-22T14:34:37.897Z,29.30
2018-03-22T14:37:05.758Z,28.33
2018-03-22T14:39:33.345Z,24.53
2018-03-22T14:42:00.941Z,26.77
2018-03-22T14:44:28.629Z,27.80
2018-03-22T14:46:56.296Z,25.77
2018-03-22T14:49:23.871Z,27.10
2018-03-22T14:51:51.536Z,28.60
2018-03-22T14:54:19.210Z,25.87
2018-03-22T14:56:46.773Z,26.67
2018-03-22T14:59:14.573Z,25.77
2018-03-22T15:01:42.178Z,23.70
2018-03-22T15:04:09.814Z,27.33
2018-03-22T15:06:37.449Z,24.73
2018-03-22T15:09:05.108Z,24.03
2018-03-22T15:11:32.713Z,25.63
2018-03-22T15:14:00.348Z,25.27
2018-03-22T15:16:27.924Z,24.67
2018-03-22T15:18:55.502Z,27.50
2018-03-22T15:21:23.372Z,24.07
2018-03-22T15:23:51.023Z,22.47
2018-03-22T15:26:18.588Z,26.03
2018-03-22T15:28:46.251Z,24.70
2018-03-22T15:31:13.840Z,27.67
2018-03-22T15:33:41.425Z,23.40
2018-03-22T15:36:09.080Z,26.30
2018-03-22T15:38:36.667Z,23.87
2018-03-22T15:41:04.326Z,25.10
2018-03-22T15:43:32.231Z,24.90
2018-03-22T15:46:00.580Z,27.43
2018-03-22T15:48:28.980Z,28.23
2018-03-22T15:50:56.609Z,24.30
2018-03-22T15:53:24.214Z,26.63
2018-03-22T15:55:51.809Z,24.53
2018-03-22T15:58:19.697Z,26.33
2018-03-22T16:00:47.366Z,24.43
2018-03-22T16:03:14.960Z,21.93
2018-03-22T16:05:42.681Z,25.27
2018-03-22T16:08:10.324Z,24.67
2018-03-22T16:10:37.905Z,30.63
2018-03-22T16:13:05.535Z,33.17
2018-03-22T16:15:33.121Z,25.17
2018-03-22T16:18:00.704Z,29.93
2018-03-22T16:20:28.333Z,25.17
2018-03-22T16:22:55.918Z,23.40
2018-03-22T16:25:23.590Z,28.30
2018-03-22T16:27:51.219Z,30.00
2018-03-22T16:30:18.870Z,35.73
2018-03-22T16:32:46.457Z,37.77
2018-03-22T16:35:14.158Z,30.77
2018-03-22T16:37:41.763Z,28.27
2018-03-22T16:40:09.347Z,38.50
2018-03-22T16:42:37.000Z,38.53
2018-03-22T16:45:04.576Z,35.27
2018-03-22T16:47:32.222Z,45.50
2018-03-22T16:50:00.141Z,42.53
2018-03-22T16:52:27.728Z,47.43
2018-03-22T16:54:55.315Z,42.20
2018-03-22T16:57:23.202Z,40.27
2018-03-22T16:59:50.791Z,34.47
2018-03-22T17:02:18.456Z,37.20
2018-03-22T17:04:46.096Z,37.13
2018-03-22T17:07:13.751Z,40.10
2018-03-22T17:09:41.331Z,38.33
2018-03-22T17:12:09.020Z,31.33
2018-03-22T17:14:36.624Z,24.40
2018-03-22T17:17:04.342Z,32.90
2018-03-22T17:19:31.961Z,33.23
2018-03-22T17:21:59.594Z,33.93
2018-03-22T17:24:27.250Z,35.53
2018-03-22T17:26:54.909Z,39.43
2018-03-22T17:29:22.554Z,47.10
2018-03-22T17:31:50.189Z,34.30
2018-03-22T17:34:17.842Z,37.03
2018-03-22T17:36:45.420Z,29.17
2018-03-22T17:39:13.661Z,32.73
2018-03-22T17:41:41.332Z,29.30
2018-03-22T17:44:09.041Z,32.00
2018-03-22T17:46:36.670Z,30.27
2018-03-22T17:49:04.482Z,28.00
2018-03-22T17:51:32.457Z,28.30
2018-03-22T17:54:00.332Z,29.17
2018-03-22T17:56:28.231Z,22.00
2018-03-22T17:58:55.949Z,21.67
2018-03-22T18:04:22.454Z,34.63
2018-03-22T18:06:50.311Z,27.30
2018-03-22T18:09:18.146Z,34.83
2018-03-22T18:11:47.040Z,24.97
2018-03-22T18:14:15.293Z,26.07
2018-03-22T18:19:25.290Z,25.00
2018-03-22T18:21:53.018Z,27.03
2018-03-22T18:24:20.827Z,26.23
2018-03-22T18:26:48.804Z,19.77
2018-03-22T18:29:16.702Z,21.83
2018-03-22T18:31:44.525Z,20.90
2018-03-22T18:34:12.753Z,25.03
2018-03-22T18:36:40.517Z,25.17
2018-03-22T18:39:08.277Z,23.73
2018-03-22T18:41:36.094Z,22.40
2018-03-22T18:44:03.882Z,23.27
2018-03-22T18:46:31.710Z,22.17
2018-03-22T18:48:59.524Z,19.03
2018-03-22T18:51:27.332Z,21.37
2018-03-22T18:53:55.166Z,18.13
2018-03-22T18:56:23.114Z,17.63
2018-03-22T18:58:50.999Z,23.70
2018-03-22T19:01:18.997Z,18.80
2018-03-22T19:03:46.923Z,19.90
2018-03-22T19:06:15.095Z,20.10
2018-03-22T19:08:43.019Z,21.90
2018-03-22T19:11:11.269Z,29.13
2018-03-22T19:13:39.777Z,17.63
2018-03-22T19:16:07.629Z,28.07
2018-03-22T19:18:35.633Z,19.63
2018-03-22T19:21:03.534Z,18.17
2018-03-22T19:23:31.502Z,19.67
2018-03-22T19:26:00.368Z,18.53
2018-03-22T19:28:28.635Z,16.10
2018-03-22T19:30:56.527Z,19.00
2018-03-22T19:33:24.426Z,17.97
2018-03-22T19:35:52.319Z,17.10
2018-03-22T19:38:20.273Z,16.57
2018-03-22T19:40:48.239Z,16.00
2018-03-22T19:43:16.108Z,19.63
2018-03-22T19:45:46.963Z,16.30
2018-03-22T19:48:15.151Z,16.77
2018-03-22T19:50:43.156Z,17.30
2018-03-22T19:53:11.066Z,14.10
2018-03-22T19:55:38.929Z,20.07
2018-03-22T19:58:06.777Z,17.10
2018-03-22T20:00:34.617Z,19.13
2018-03-22T20:03:02.513Z,23.27
2018-03-22T20:05:30.412Z,22.83
2018-03-22T20:07:58.766Z,34.50
2018-03-22T20:10:26.704Z,35.70
2018-03-22T20:12:54.583Z,26.43
2018-03-22T20:15:23.186Z,21.47
2018-03-22T20:17:51.132Z,28.23
2018-03-22T20:20:21.751Z,18.63
2018-03-22T20:22:49.557Z,18.27
2018-03-22T20:25:17.476Z,15.37
2018-03-22T20:27:45.338Z,16.57
2018-03-22T20:30:13.219Z,14.10
2018-03-22T20:32:41.211Z,14.37
2018-03-22T20:35:09.022Z,15.00
2018-03-22T20:37:36.781Z,18.17
2018-03-22T20:40:04.636Z,17.40
2018-03-22T20:42:32.418Z,17.40
2018-03-22T20:45:00.184Z,16.40
2018-03-22T20:47:29.699Z,17.93
2018-03-22T20:49:57.413Z,15.27
2018-03-22T20:52:25.159Z,17.33
2018-03-22T20:54:52.889Z,17.67
2018-03-22T20:57:20.547Z,15.43
2018-03-22T20:59:48.202Z,18.33
2018-03-22T21:02:16.103Z,16.13
2018-03-22T21:04:44.943Z,17.13
2018-03-22T21:07:12.543Z,17.13
2018-03-22T21:09:40.439Z,18.33
2018-03-22T21:12:08.014Z,20.30
2018-03-22T21:14:35.628Z,14.17
2018-03-22T21:17:03.278Z,17.27
2018-03-22T21:19:30.874Z,17.57
2018-03-22T21:21:58.517Z,17.93
2018-03-22T21:24:26.162Z,12.77
2018-03-22T21:26:53.811Z,13.17
2018-03-22T21:29:21.401Z,15.17
2018-03-22T21:31:49.354Z,13.60
2018-03-22T21:34:16.940Z,11.33
2018-03-22T21:36:44.522Z,13.23
2018-03-22T21:39:12.123Z,12.37
2018-03-22T21:41:48.532Z,10.20
2018-03-22T21:44:17.186Z,9.90
2018-03-22T21:46:44.894Z,11.73
2018-03-22T21:49:12.495Z,11.43
2018-03-22T21:51:40.216Z,10.23
2018-03-22T21:54:07.791Z,12.33
2018-03-22T21:56:35.365Z,11.20
2018-03-22T21:59:03.066Z,10.27
2018-03-22T22:01:30.648Z,10.90
2018-03-22T22:03:58.217Z,10.47
2018-03-22T22:06:27.647Z,10.07
2018-03-22T22:08:55.206Z,13.47
2018-03-22T22:11:22.886Z,10.87
2018-03-22T22:13:50.492Z,12.60
2018-03-22T22:16:18.074Z,18.20
2018-03-22T22:18:45.627Z,12.63
2018-03-22T22:21:13.458Z,14.80
2018-03-22T22:23:41.094Z,11.43
2018-03-22T22:26:08.661Z,9.87
2018-03-22T22:28:36.285Z,9.33
2018-03-22T22:31:03.859Z,9.87
2018-03-22T22:33:31.428Z,11.80
2018-03-22T22:35:59.094Z,8.23
2018-03-22T22:38:26.697Z,7.40
2018-03-22T22:40:54.253Z,9.63
2018-03-22T22:43:21.860Z,8.53
2018-03-22T22:45:50.086Z,9.67
2018-03-22T22:48:17.646Z,9.33
2018-03-22T22:50:45.281Z,9.13
2018-03-22T22:53:12.905Z,9.23
2018-03-22T22:55:40.471Z,9.03
2018-03-22T22:58:08.097Z,9.47
2018-03-22T23:00:35.653Z,8.30
2018-03-22T23:03:03.240Z,7.23
2018-03-22T23:05:31.057Z,7.10
2018-03-22T23:07:58.633Z,9.63
2018-03-22T23:10:26.198Z,7.10
2018-03-22T23:12:54.355Z,8.30
2018-03-22T23:15:21.924Z,7.57
2018-03-22T23:17:49.492Z,7.20
2018-03-22T23:20:17.932Z,7.87
2018-03-22T23:22:45.490Z,9.83
2018-03-22T23:25:13.828Z,8.03
2018-03-22T23:27:42.325Z,8.23
2018-03-22T23:30:09.894Z,6.87
2018-03-22T23:32:37.973Z,5.77
2018-03-22T23:35:05.622Z,7.13
2018-03-22T23:37:33.270Z,7.83
2018-03-22T23:40:00.846Z,9.10
2018-03-22T23:42:28.462Z,9.30
2018-03-22T23:44:56.035Z,6.93
2018-03-22T23:47:23.607Z,7.53
2018-03-22T23:49:51.267Z,8.93
2018-03-22T23:52:18.903Z,10.90
2018-03-22T23:54:46.466Z,6.70
2018-03-22T23:57:14.056Z,9.90
2018-03-22T23:59:41.648Z,7.20
